Time;durP1;ratioP1;P1;durP2;ratioP2;P2;SDS_P1;SDS_P2;PMS_P1;PMS_P2;Temp;Humidity;BMP_temperature;BMP_pressure;BME280_temperature;BME280_humidity;BME280_pressure;Samples;Min_cycle;Max_cycle;Signal;HPM_P1;HPM_P2
2023/07/02 00:00:22;;;;;;;4.00;2.60;;;;;;;;;;4995819;28;20140;-83
2023/07/02 00:02:48;;;;;;;7.07;2.70;;;;;;;;;;5016606;28;20091;-83
2023/07/02 00:05:18;;;;;;;8.10;3.13;;;;;;;;;;5034835;28;20048;-83
2023/07/02 00:07:51;;;;;;;5.50;2.47;;;;;;;;;;5034222;28;20068;-83
2023/07/02 00:10:20;;;;;;;2.75;2.05;;;;;;;;;;5016296;28;20132;-80
2023/07/02 00:12:49;;;;;;;4.55;2.17;;;;;;;;;;5003244;28;20069;-83
2023/07/02 00:15:16;;;;;;;4.18;2.15;;;;;;;;;;5015861;28;20045;-81
2023/07/02 00:17:43;;;;;;;4.70;2.22;;;;;;;;;;5015306;28;20045;-81
2023/07/02 00:20:14;;;;;;;5.03;2.10;;;;;;;;;;5016441;28;20041;-82
2023/07/02 00:22:44;;;;;;;7.28;2.40;;;;;;;;;;5015780;28;20165;-81
2023/07/02 00:25:12;;;;;;;5.32;2.22;;;;;;;;;;4998596;28;20124;-84
2023/07/02 00:27:39;;;;;;;4.53;2.25;;;;;;;;;;5031865;28;20425;-80
2023/07/02 00:30:06;;;;;;;3.20;2.10;;;;;;;;;;5004672;28;20057;-81
2023/07/02 00:32:33;;;;;;;3.53;2.20;;;;;;;;;;5014512;28;20046;-82
2023/07/02 00:35:00;;;;;;;10.18;2.00;;;;;;;;;;4999351;28;20052;-83
2023/07/02 00:37:26;;;;;;;5.80;2.25;;;;;;;;;;4999693;28;20059;-82
2023/07/02 00:39:57;;;;;;;4.63;2.15;;;;;;;;;;5015654;28;20057;-83
2023/07/02 00:42:23;;;;;;;3.78;1.80;;;;;;;;;;4999150;28;20061;-82
2023/07/02 00:44:52;;;;;;;4.78;2.53;;;;;;;;;;4998828;28;20045;-82
2023/07/02 00:47:19;;;;;;;4.88;2.00;;;;;;;;;;4995290;28;20124;-83
2023/07/02 00:49:48;;;;;;;5.18;2.08;;;;;;;;;;4985719;28;20457;-80
2023/07/02 00:52:20;;;;;;;6.95;1.83;;;;;;;;;;4996357;28;20041;-83
2023/07/02 00:54:47;;;;;;;6.68;1.95;;;;;;;;;;5014081;28;20061;-81
2023/07/02 00:57:14;;;;;;;3.65;1.73;;;;;;;;;;4993514;28;20050;-80
2023/07/02 00:59:40;;;;;;;3.33;1.80;;;;;;;;;;5002083;28;20184;-83
2023/07/02 01:02:07;;;;;;;4.05;1.77;;;;;;;;;;5014008;28;20046;-82
2023/07/02 01:04:34;;;;;;;3.33;2.00;;;;;;;;;;4992213;28;20057;-83
2023/07/02 01:07:01;;;;;;;3.00;1.83;;;;;;;;;;4993849;28;20038;-83
2023/07/02 01:09:28;;;;;;;3.13;2.28;;;;;;;;;;4977737;28;20046;-81
2023/07/02 01:11:56;;;;;;;4.28;2.05;;;;;;;;;;4978396;28;20048;-81
2023/07/02 01:14:25;;;;;;;3.95;2.40;;;;;;;;;;4996041;28;20079;-81
2023/07/02 01:16:54;;;;;;;5.35;2.35;;;;;;;;;;4996782;28;20072;-82
2023/07/02 01:19:40;;;;;;;3.03;2.20;;;;;;;;;;4995722;28;20042;-81
2023/07/02 01:22:08;;;;;;;4.30;2.15;;;;;;;;;;4986671;28;20041;-81
2023/07/02 01:24:36;;;;;;;2.83;2.20;;;;;;;;;;5032213;28;20101;-83
2023/07/02 01:27:02;;;;;;;4.72;2.40;;;;;;;;;;5015277;28;20037;-85
2023/07/02 01:29:29;;;;;;;2.60;2.10;;;;;;;;;;5025282;28;20061;-83
2023/07/02 01:31:57;;;;;;;4.03;2.08;;;;;;;;;;5016841;28;20042;-82
2023/07/02 01:34:24;;;;;;;3.20;2.47;;;;;;;;;;4999316;28;20474;-83
2023/07/02 01:36:50;;;;;;;4.30;2.40;;;;;;;;;;4997329;28;20471;-82
2023/07/02 01:39:17;;;;;;;5.03;2.15;;;;;;;;;;4995113;28;20509;-83
2023/07/02 01:41:54;;;;;;;2.65;2.10;;;;;;;;;;4997868;28;20655;-81
2023/07/02 01:44:21;;;;;;;4.05;2.60;;;;;;;;;;4996769;28;20141;-83
2023/07/02 01:46:48;;;;;;;4.97;2.20;;;;;;;;;;5012843;28;20124;-81
2023/07/02 01:49:16;;;;;;;4.00;2.08;;;;;;;;;;5015546;28;20406;-81
2023/07/02 01:52:00;;;;;;;2.00;1.77;;;;;;;;;;5015099;28;20065;-80
2023/07/02 01:54:27;;;;;;;4.20;2.10;;;;;;;;;;5015475;28;20056;-81
2023/07/02 01:56:57;;;;;;;5.30;2.35;;;;;;;;;;5003612;28;20079;-81
2023/07/02 01:59:24;;;;;;;2.90;2.28;;;;;;;;;;5014796;28;20041;-80
2023/07/02 02:01:51;;;;;;;2.97;2.20;;;;;;;;;;5013799;28;20083;-81
2023/07/02 02:04:18;;;;;;;3.60;2.15;;;;;;;;;;5034418;28;20433;-82
2023/07/02 02:06:44;;;;;;;2.90;2.10;;;;;;;;;;5014838;28;20045;-82
2023/07/02 02:09:11;;;;;;;3.97;2.00;;;;;;;;;;4999866;28;20414;-81
2023/07/02 02:11:39;;;;;;;1.92;1.58;;;;;;;;;;5000392;28;20136;-81
2023/07/02 02:14:06;;;;;;;4.85;2.00;;;;;;;;;;5015080;28;20045;-81
2023/07/02 02:16:35;;;;;;;3.10;2.35;;;;;;;;;;5035472;28;20639;-81
2023/07/02 02:19:02;;;;;;;4.10;2.30;;;;;;;;;;5016812;28;20064;-82
2023/07/02 02:21:32;;;;;;;7.45;2.20;;;;;;;;;;5001776;28;20044;-83
2023/07/02 02:23:59;;;;;;;3.10;2.05;;;;;;;;;;5002480;28;20037;-82
2023/07/02 02:26:26;;;;;;;2.88;2.08;;;;;;;;;;5018534;28;20065;-81
2023/07/02 02:28:52;;;;;;;4.60;2.40;;;;;;;;;;5016321;28;20041;-82
2023/07/02 02:31:19;;;;;;;3.92;2.30;;;;;;;;;;5034664;28;20599;-81
2023/07/02 02:33:46;;;;;;;6.38;2.42;;;;;;;;;;5016929;28;20095;-80
2023/07/02 02:36:14;;;;;;;3.05;2.10;;;;;;;;;;5016263;28;20042;-80
2023/07/02 02:38:40;;;;;;;4.22;2.70;;;;;;;;;;5015646;28;20611;-79
2023/07/02 02:41:08;;;;;;;4.30;2.20;;;;;;;;;;5015160;28;20053;-81
2023/07/02 02:43:43;;;;;;;4.90;2.35;;;;;;;;;;5009482;28;20042;-84
2023/07/02 02:46:12;;;;;;;3.03;2.25;;;;;;;;;;5009830;28;20049;-83
2023/07/02 02:48:39;;;;;;;3.75;2.30;;;;;;;;;;5020040;28;20453;-84
2023/07/02 02:51:08;;;;;;;3.72;2.17;;;;;;;;;;5002454;28;20069;-83
2023/07/02 02:53:34;;;;;;;6.43;2.40;;;;;;;;;;5018195;28;20052;-83
2023/07/02 02:56:01;;;;;;;4.93;2.47;;;;;;;;;;5018560;28;20047;-82
2023/07/02 02:58:28;;;;;;;3.78;2.33;;;;;;;;;;5006930;28;20033;-82
2023/07/02 03:00:54;;;;;;;5.50;2.22;;;;;;;;;;5021957;28;20455;-83
2023/07/02 03:03:24;;;;;;;6.20;2.17;;;;;;;;;;5021130;28;20045;-82
2023/07/02 03:05:51;;;;;;;3.75;2.17;;;;;;;;;;5001219;28;20061;-82
2023/07/02 03:08:17;;;;;;;4.03;2.10;;;;;;;;;;5020375;28;20056;-82
2023/07/02 03:10:44;;;;;;;2.10;1.90;;;;;;;;;;5020539;28;20045;-80
2023/07/02 03:13:11;;;;;;;2.92;2.03;;;;;;;;;;5002859;28;20045;-80
2023/07/02 03:15:37;;;;;;;3.17;1.80;;;;;;;;;;4999830;28;20057;-81
2023/07/02 03:18:04;;;;;;;9.20;2.65;;;;;;;;;;5014169;28;20049;-80
2023/07/02 03:20:30;;;;;;;2.38;2.17;;;;;;;;;;5031664;28;20087;-83
2023/07/02 03:22:57;;;;;;;6.32;2.40;;;;;;;;;;5014347;28;20056;-81
2023/07/02 03:25:24;;;;;;;6.03;2.60;;;;;;;;;;5013799;28;20045;-82
2023/07/02 03:27:50;;;;;;;3.70;2.35;;;;;;;;;;5031082;28;20057;-82
2023/07/02 03:30:17;;;;;;;3.00;2.65;;;;;;;;;;5015475;28;20498;-80
2023/07/02 03:32:44;;;;;;;4.68;2.85;;;;;;;;;;5014198;28;20049;-82
2023/07/02 03:35:11;;;;;;;9.20;2.75;;;;;;;;;;5033064;28;20041;-80
2023/07/02 03:37:37;;;;;;;6.47;2.90;;;;;;;;;;5036199;28;20078;-80
2023/07/02 03:40:05;;;;;;;5.10;3.00;;;;;;;;;;5019381;28;20179;-83
2023/07/02 03:42:32;;;;;;;6.05;3.03;;;;;;;;;;5019219;28;20294;-81
2023/07/02 03:44:59;;;;;;;4.20;3.20;;;;;;;;;;5012669;28;20045;-80
2023/07/02 03:47:25;;;;;;;4.10;2.97;;;;;;;;;;5019565;28;20049;-83
2023/07/02 03:49:52;;;;;;;3.83;3.03;;;;;;;;;;5006466;28;20087;-82
2023/07/02 03:52:19;;;;;;;5.72;3.70;;;;;;;;;;5040184;28;20037;-82
2023/07/02 03:54:45;;;;;;;6.50;3.88;;;;;;;;;;5034916;28;20558;-81
2023/07/02 03:57:12;;;;;;;6.10;3.90;;;;;;;;;;5027124;28;20053;-82
2023/07/02 03:59:39;;;;;;;5.47;3.40;;;;;;;;;;5037856;28;20067;-81
2023/07/02 04:02:06;;;;;;;6.35;4.00;;;;;;;;;;5040011;28;20045;-84
2023/07/02 04:04:32;;;;;;;5.47;3.97;;;;;;;;;;5042361;28;20136;-84
2023/07/02 04:06:59;;;;;;;9.35;4.57;;;;;;;;;;5041790;28;20211;-83
2023/07/02 04:09:26;;;;;;;6.38;4.30;;;;;;;;;;5023975;28;20114;-83
2023/07/02 04:11:52;;;;;;;4.85;4.03;;;;;;;;;;5039157;28;20076;-81
2023/07/02 04:14:19;;;;;;;7.35;4.45;;;;;;;;;;5036866;28;20095;-82
2023/07/02 04:16:45;;;;;;;7.05;4.32;;;;;;;;;;5033846;28;20045;-82
2023/07/02 04:19:12;;;;;;;7.03;4.20;;;;;;;;;;5037162;28;20041;-83
2023/07/02 04:21:39;;;;;;;6.50;4.18;;;;;;;;;;5034634;28;20046;-83
2023/07/02 04:24:06;;;;;;;5.80;3.95;;;;;;;;;;5037759;28;20114;-83
2023/07/02 04:26:33;;;;;;;9.35;4.10;;;;;;;;;;5037628;28;20587;-82
2023/07/02 04:29:20;;;;;;;7.10;4.25;;;;;;;;;;5034270;28;20244;-80
2023/07/02 04:31:46;;;;;;;5.25;3.90;;;;;;;;;;5040351;28;20053;-83
2023/07/02 04:34:13;;;;;;;10.43;4.05;;;;;;;;;;5040343;28;20042;-83
2023/07/02 04:36:43;;;;;;;7.68;4.38;;;;;;;;;;5040199;28;20069;-82
2023/07/02 04:39:10;;;;;;;8.48;4.18;;;;;;;;;;5018298;28;20169;-81
2023/07/02 04:41:37;;;;;;;6.88;4.30;;;;;;;;;;5033779;28;20073;-84
2023/07/02 04:44:04;;;;;;;5.30;3.97;;;;;;;;;;5024428;28;20454;-82
2023/07/02 04:46:30;;;;;;;6.35;3.88;;;;;;;;;;4997747;28;20108;-81
2023/07/02 04:48:57;;;;;;;5.78;3.88;;;;;;;;;;4993816;28;20113;-83
2023/07/02 04:51:24;;;;;;;8.85;4.03;;;;;;;;;;4976858;28;20077;-81
2023/07/02 04:53:50;;;;;;;10.10;4.38;;;;;;;;;;4994439;28;20049;-82
2023/07/02 04:56:17;;;;;;;7.97;4.38;;;;;;;;;;4995981;28;20060;-83
2023/07/02 04:58:44;;;;;;;6.25;3.92;;;;;;;;;;5014876;28;20456;-83
2023/07/02 05:01:10;;;;;;;5.22;4.20;;;;;;;;;;5015204;28;20124;-81
2023/07/02 05:03:38;;;;;;;7.35;4.28;;;;;;;;;;5014493;28;20050;-81
2023/07/02 05:06:06;;;;;;;7.68;4.30;;;;;;;;;;5014070;28;20050;-82
2023/07/02 05:08:33;;;;;;;5.95;4.38;;;;;;;;;;5031905;28;20056;-82
2023/07/02 05:10:59;;;;;;;10.93;4.75;;;;;;;;;;5032047;28;20045;-83
2023/07/02 05:13:26;;;;;;;6.60;4.32;;;;;;;;;;5016877;28;20091;-82
2023/07/02 05:15:52;;;;;;;7.88;4.80;;;;;;;;;;5016617;28;20049;-83
2023/07/02 05:18:19;;;;;;;11.90;5.38;;;;;;;;;;5015804;28;20038;-82
2023/07/02 05:20:45;;;;;;;8.68;4.90;;;;;;;;;;5015013;28;20049;-82
2023/07/02 05:23:12;;;;;;;6.88;4.43;;;;;;;;;;5000492;28;20042;-82
2023/07/02 05:25:39;;;;;;;10.07;5.72;;;;;;;;;;5015335;28;20568;-83
2023/07/02 05:28:06;;;;;;;9.32;4.20;;;;;;;;;;5014789;28;20041;-82
2023/07/02 05:30:32;;;;;;;7.30;4.68;;;;;;;;;;5012288;28;20061;-81
2023/07/02 05:32:59;;;;;;;8.77;5.22;;;;;;;;;;4995220;28;20482;-82
2023/07/02 05:35:25;;;;;;;11.50;5.35;;;;;;;;;;5012180;28;20099;-82
2023/07/02 05:37:52;;;;;;;9.07;5.28;;;;;;;;;;5031452;28;20080;-81
2023/07/02 05:40:19;;;;;;;8.10;5.57;;;;;;;;;;5014113;28;20052;-81
2023/07/02 05:42:45;;;;;;;12.43;5.80;;;;;;;;;;5028776;28;20053;-83
2023/07/02 05:45:12;;;;;;;11.63;6.47;;;;;;;;;;4999600;28;20042;-82
2023/07/02 05:47:38;;;;;;;11.38;6.00;;;;;;;;;;5016927;28;20124;-84
2023/07/02 05:50:06;;;;;;;8.77;5.95;;;;;;;;;;5020524;28;20105;-82
2023/07/02 05:52:32;;;;;;;7.25;5.55;;;;;;;;;;5021289;28;20037;-82
2023/07/02 05:54:59;;;;;;;8.52;5.65;;;;;;;;;;5024796;28;20046;-84
2023/07/02 05:57:26;;;;;;;7.65;5.88;;;;;;;;;;5015986;28;20313;-83
2023/07/02 05:59:52;;;;;;;8.75;5.63;;;;;;;;;;5029660;28;20041;-83
2023/07/02 06:02:19;;;;;;;8.00;5.50;;;;;;;;;;5029250;28;20037;-81
2023/07/02 06:04:45;;;;;;;8.60;5.63;;;;;;;;;;5000257;28;20070;-82
2023/07/02 06:07:12;;;;;;;9.77;6.18;;;;;;;;;;5014097;28;20042;-83
2023/07/02 06:09:39;;;;;;;8.70;6.00;;;;;;;;;;5034938;28;20041;-83
2023/07/02 06:12:05;;;;;;;7.38;5.28;;;;;;;;;;5034553;28;20514;-83
2023/07/02 06:14:33;;;;;;;9.98;4.95;;;;;;;;;;5001200;28;20053;-82
2023/07/02 06:17:00;;;;;;;6.93;5.25;;;;;;;;;;5015986;28;20076;-80
2023/07/02 06:19:27;;;;;;;6.03;5.15;;;;;;;;;;4998233;28;20073;-82
2023/07/02 06:21:54;;;;;;;7.53;5.45;;;;;;;;;;4998916;28;20068;-82
2023/07/02 06:24:21;;;;;;;7.40;5.57;;;;;;;;;;5031158;28;20057;-81
2023/07/02 06:26:49;;;;;;;10.52;5.43;;;;;;;;;;5016006;28;20046;-81
2023/07/02 06:29:16;;;;;;;9.40;5.70;;;;;;;;;;5015910;28;20149;-81
2023/07/02 06:31:42;;;;;;;7.03;5.30;;;;;;;;;;5020731;28;20073;-79
2023/07/02 06:34:09;;;;;;;6.88;5.45;;;;;;;;;;5021363;28;20042;-81
2023/07/02 06:36:36;;;;;;;7.05;4.70;;;;;;;;;;5037917;28;20477;-80
2023/07/02 06:39:02;;;;;;;6.05;4.60;;;;;;;;;;5023601;28;20045;-81
2023/07/02 06:41:29;;;;;;;8.88;4.53;;;;;;;;;;5007554;28;20443;-81
2023/07/02 06:43:56;;;;;;;10.23;4.53;;;;;;;;;;5022740;28;20121;-82
2023/07/02 06:46:22;;;;;;;6.93;4.50;;;;;;;;;;5025365;28;20049;-83
2023/07/02 06:48:49;;;;;;;7.15;4.13;;;;;;;;;;5011585;28;20129;-81
2023/07/02 06:51:16;;;;;;;4.90;3.88;;;;;;;;;;5012312;28;20045;-82
2023/07/02 06:53:44;;;;;;;5.40;4.00;;;;;;;;;;5015105;28;20049;-82
2023/07/02 06:56:11;;;;;;;7.15;3.72;;;;;;;;;;5002399;28;20751;-82
2023/07/02 06:58:41;;;;;;;6.15;3.80;;;;;;;;;;4999153;28;20068;-82
2023/07/02 07:01:08;;;;;;;10.13;3.75;;;;;;;;;;5015807;28;20064;-83
2023/07/02 07:03:34;;;;;;;8.38;3.65;;;;;;;;;;5017942;28;20129;-81
2023/07/02 07:06:02;;;;;;;5.00;3.65;;;;;;;;;;5000220;28;20045;-81
2023/07/02 07:08:29;;;;;;;5.75;3.60;;;;;;;;;;4999928;28;20144;-82
2023/07/02 07:10:55;;;;;;;4.15;3.10;;;;;;;;;;5006703;28;20053;-81
2023/07/02 07:13:25;;;;;;;7.97;3.45;;;;;;;;;;5024412;28;20545;-82
2023/07/02 07:16:06;;;;;;;5.90;3.60;;;;;;;;;;5008303;28;20058;-81
2023/07/02 07:18:32;;;;;;;6.75;3.30;;;;;;;;;;5029304;28;20092;-82
2023/07/02 07:21:00;;;;;;;5.22;3.60;;;;;;;;;;5034619;28;20033;-81
2023/07/02 07:23:26;;;;;;;5.45;3.38;;;;;;;;;;5016247;28;20067;-82
2023/07/02 07:25:53;;;;;;;5.43;3.33;;;;;;;;;;5011294;28;20442;-81
2023/07/02 07:28:19;;;;;;;4.80;3.28;;;;;;;;;;5007217;28;20168;-82
2023/07/02 07:30:46;;;;;;;4.88;3.30;;;;;;;;;;5008621;28;20041;-84
2023/07/02 07:33:13;;;;;;;5.38;2.90;;;;;;;;;;5033854;28;20042;-83
2023/07/02 07:35:40;;;;;;;6.93;3.00;;;;;;;;;;5026832;28;20041;-82
2023/07/02 07:38:06;;;;;;;9.15;3.22;;;;;;;;;;5038070;28;20050;-84
2023/07/02 07:40:33;;;;;;;4.60;2.90;;;;;;;;;;5035742;28;20042;-84
2023/07/02 07:43:00;;;;;;;7.78;3.13;;;;;;;;;;4992922;28;20130;-84
2023/07/02 07:45:29;;;;;;;3.95;2.70;;;;;;;;;;5017325;28;20809;-82
2023/07/02 07:47:56;;;;;;;4.07;2.65;;;;;;;;;;5010452;28;20038;-81
2023/07/02 07:50:23;;;;;;;4.38;2.58;;;;;;;;;;5035545;28;20041;-84
2023/07/02 07:52:49;;;;;;;7.68;2.90;;;;;;;;;;5019736;28;20489;-82
2023/07/02 07:55:16;;;;;;;3.42;2.60;;;;;;;;;;5028616;28;20049;-83
2023/07/02 07:57:42;;;;;;;5.47;2.42;;;;;;;;;;4997209;28;20041;-83
2023/07/02 08:00:09;;;;;;;4.82;2.55;;;;;;;;;;5021627;28;20064;-84
2023/07/02 08:02:42;;;;;;;5.18;2.80;;;;;;;;;;5036588;28;20049;-82
2023/07/02 08:05:09;;;;;;;6.38;3.03;;;;;;;;;;5018039;28;20128;-84
2023/07/02 08:07:36;;;;;;;6.50;2.63;;;;;;;;;;5013720;28;20065;-81
2023/07/02 08:10:03;;;;;;;7.22;2.78;;;;;;;;;;5010829;28;20067;-83
2023/07/02 08:12:29;;;;;;;3.15;2.40;;;;;;;;;;5031644;28;20049;-80
2023/07/02 08:14:56;;;;;;;3.00;2.40;;;;;;;;;;5015052;28;20124;-80
2023/07/02 08:17:23;;;;;;;3.50;2.15;;;;;;;;;;5033703;28;20441;-82
2023/07/02 08:19:49;;;;;;;4.18;2.30;;;;;;;;;;5016178;28;20560;-80
2023/07/02 08:22:16;;;;;;;3.60;2.67;;;;;;;;;;5036422;28;20041;-82
2023/07/02 08:24:42;;;;;;;4.03;1.90;;;;;;;;;;5018998;28;20061;-80
2023/07/02 08:27:13;;;;;;;4.03;2.00;;;;;;;;;;5038338;28;20049;-83
2023/07/02 08:29:40;;;;;;;2.92;1.80;;;;;;;;;;5020147;28;20064;-83
2023/07/02 08:32:07;;;;;;;4.57;1.67;;;;;;;;;;5042786;28;20041;-83
2023/07/02 08:34:33;;;;;;;4.43;1.73;;;;;;;;;;5044353;28;20071;-82
2023/07/02 08:37:00;;;;;;;3.22;1.55;;;;;;;;;;5044172;28;20042;-82
2023/07/02 08:39:26;;;;;;;5.47;1.63;;;;;;;;;;5025246;28;20053;-84
2023/07/02 08:41:53;;;;;;;4.10;2.05;;;;;;;;;;5026936;28;20473;-84
2023/07/02 08:44:21;;;;;;;4.28;1.73;;;;;;;;;;5033172;28;20109;-83
2023/07/02 08:46:50;;;;;;;2.65;1.60;;;;;;;;;;5006210;28;20207;-82
2023/07/02 08:49:20;;;;;;;2.60;1.77;;;;;;;;;;5022013;28;20050;-84
2023/07/02 08:51:47;;;;;;;3.83;1.52;;;;;;;;;;5003444;28;20057;-84
2023/07/02 08:54:14;;;;;;;2.78;1.50;;;;;;;;;;4999195;28;20423;-81
2023/07/02 08:56:41;;;;;;;2.40;1.60;;;;;;;;;;5016753;28;20045;-81
2023/07/02 08:59:08;;;;;;;2.55;1.30;;;;;;;;;;5015307;28;20046;-79
2023/07/02 09:01:47;;;;;;;4.72;1.35;;;;;;;;;;5016080;28;20551;-81
2023/07/02 09:04:21;;;;;;;2.67;1.20;;;;;;;;;;5033421;28;20091;-82
2023/07/02 09:06:48;;;;;;;5.15;1.50;;;;;;;;;;5042156;28;20049;-83
2023/07/02 09:09:15;;;;;;;1.95;1.20;;;;;;;;;;5027152;28;20055;-83
2023/07/02 09:11:51;;;;;;;4.05;1.40;;;;;;;;;;5007816;28;20045;-83
2023/07/02 09:14:30;;;;;;;2.25;1.30;;;;;;;;;;5043384;28;20045;-83
2023/07/02 09:17:03;;;;;;;1.58;1.20;;;;;;;;;;5023615;28;20045;-83
2023/07/02 09:19:31;;;;;;;1.83;1.30;;;;;;;;;;5009481;28;20075;-84
2023/07/02 09:22:01;;;;;;;2.70;1.20;;;;;;;;;;5045734;28;20107;-81
2023/07/02 09:24:29;;;;;;;2.58;1.40;;;;;;;;;;5045671;28;20067;-83
2023/07/02 09:26:56;;;;;;;2.47;1.10;;;;;;;;;;5024021;28;20045;-84
2023/07/02 09:29:24;;;;;;;2.03;1.17;;;;;;;;;;5024991;28;20466;-85
2023/07/02 09:31:51;;;;;;;4.20;1.10;;;;;;;;;;5022820;28;20699;-84
2023/07/02 09:34:36;;;;;;;5.70;1.30;;;;;;;;;;5033389;28;20100;-82
2023/07/02 09:37:04;;;;;;;1.60;0.93;;;;;;;;;;5000218;28;20284;-82
2023/07/02 09:39:32;;;;;;;2.55;1.25;;;;;;;;;;5018401;28;20134;-84
2023/07/02 09:42:00;;;;;;;2.40;1.35;;;;;;;;;;5034577;28;20042;-85
2023/07/02 09:44:30;;;;;;;2.10;1.30;;;;;;;;;;5011144;28;20049;-81
2023/07/02 09:47:00;;;;;;;2.80;1.10;;;;;;;;;;5001389;28;20129;-83
2023/07/02 09:49:27;;;;;;;1.98;1.20;;;;;;;;;;4985387;28;20053;-83
2023/07/02 09:51:53;;;;;;;2.33;1.20;;;;;;;;;;5021220;28;20057;-80
2023/07/02 09:54:20;;;;;;;2.15;1.00;;;;;;;;;;5022195;28;20106;-82
2023/07/02 09:56:47;;;;;;;1.60;1.08;;;;;;;;;;5026663;28;20049;-81
2023/07/02 09:59:14;;;;;;;2.58;1.38;;;;;;;;;;5021201;28;20129;-81
2023/07/02 10:01:41;;;;;;;4.13;1.40;;;;;;;;;;5021326;28;20050;-84
2023/07/02 10:04:14;;;;;;;2.80;1.17;;;;;;;;;;5022502;28;20489;-82
2023/07/02 10:07:00;;;;;;;3.78;1.30;;;;;;;;;;5022656;28;20120;-83
2023/07/02 10:09:27;;;;;;;;;;;;;;;;;;5040564;28;20099;-86
2023/07/02 10:11:53;;;;;;;4.10;1.40;;;;;;;;;;5025552;28;20015;-84
2023/07/02 10:14:20;;;;;;;5.47;1.35;;;;;;;;;;5027596;28;20045;-84
2023/07/02 10:16:50;;;;;;;3.63;1.40;;;;;;;;;;5041265;28;20057;-85
2023/07/02 10:19:17;;;;;;;3.30;1.38;;;;;;;;;;5006916;28;20045;-84
2023/07/02 10:21:49;;;;;;;2.28;1.60;;;;;;;;;;5025012;28;20069;-84
2023/07/02 10:24:17;;;;;;;2.20;1.42;;;;;;;;;;5023899;28;20106;-82
2023/07/02 10:26:53;;;;;;;6.10;1.60;;;;;;;;;;4982463;28;20108;-84
2023/07/02 10:29:20;;;;;;;2.10;1.27;;;;;;;;;;4999782;28;20049;-85
2023/07/02 10:31:54;;;;;;;4.18;1.40;;;;;;;;;;5002647;28;20049;-83
2023/07/02 10:34:30;;;;;;;3.83;1.45;;;;;;;;;;5005369;28;20052;-83
2023/07/02 10:36:56;;;;;;;2.90;1.38;;;;;;;;;;5004805;28;20042;-81
2023/07/02 10:39:23;;;;;;;5.07;1.50;;;;;;;;;;5009649;28;20334;-83
2023/07/02 10:41:49;;;;;;;5.50;1.25;;;;;;;;;;5027359;28;20041;-85
2023/07/02 10:44:16;;;;;;;3.00;1.42;;;;;;;;;;5011977;28;20045;-83
2023/07/02 10:46:43;;;;;;;2.75;1.83;;;;;;;;;;5026822;28;20506;-83
2023/07/02 10:49:11;;;;;;;3.28;1.67;;;;;;;;;;5025574;28;20049;-84
2023/07/02 10:51:38;;;;;;;2.08;1.60;;;;;;;;;;5009050;28;20053;-86
2023/07/02 10:54:05;;;;;;;7.22;1.70;;;;;;;;;;5024567;28;20049;-85
2023/07/02 10:56:31;;;;;;;1.92;1.50;;;;;;;;;;5024760;28;20520;-84
2023/07/02 10:58:58;;;;;;;2.70;1.63;;;;;;;;;;5020273;28;20042;-83
2023/07/02 11:01:28;;;;;;;2.70;1.50;;;;;;;;;;5022607;28;20110;-84
2023/07/02 11:04:04;;;;;;;4.45;1.50;;;;;;;;;;5021879;28;20050;-81
2023/07/02 11:06:32;;;;;;;6.35;1.60;;;;;;;;;;5016676;28;20042;-83
2023/07/02 11:08:59;;;;;;;3.38;1.67;;;;;;;;;;5011909;28;20101;-87
2023/07/02 11:11:26;;;;;;;6.47;1.90;;;;;;;;;;5025526;28;20054;-84
2023/07/02 11:13:53;;;;;;;4.05;1.88;;;;;;;;;;5043872;28;20033;-87
2023/07/02 11:16:25;;;;;;;3.20;1.80;;;;;;;;;;5017472;28;20494;-82
2023/07/02 11:18:53;;;;;;;3.78;1.77;;;;;;;;;;5016488;28;20658;-81
2023/07/02 11:21:20;;;;;;;4.00;1.80;;;;;;;;;;5004975;28;20125;-85
2023/07/02 11:23:47;;;;;;;4.95;1.98;;;;;;;;;;5014074;28;20049;-83
2023/07/02 11:26:13;;;;;;;4.80;2.10;;;;;;;;;;5015273;28;20049;-82
2023/07/02 11:28:52;;;;;;;3.60;1.95;;;;;;;;;;5015190;28;20042;-81
2023/07/02 11:31:26;;;;;;;6.38;2.00;;;;;;;;;;5008541;28;20498;-87
2023/07/02 11:33:53;;;;;;;3.65;1.60;;;;;;;;;;5029925;28;20045;-80
2023/07/02 11:36:20;;;;;;;6.57;1.88;;;;;;;;;;5013426;28;20045;-82
2023/07/02 11:38:48;;;;;;;3.88;1.70;;;;;;;;;;5045735;28;20493;-89
2023/07/02 11:41:15;;;;;;;5.03;1.60;;;;;;;;;;5008270;28;20046;-84
2023/07/02 11:43:41;;;;;;;4.70;1.90;;;;;;;;;;5036912;28;20128;-84
2023/07/02 11:46:08;;;;;;;4.05;1.80;;;;;;;;;;5034092;28;20050;-86
2023/07/02 11:48:38;;;;;;;3.92;2.22;;;;;;;;;;5014781;28;20078;-90
2023/07/02 11:51:07;;;;;;;3.92;1.92;;;;;;;;;;5029099;28;20042;-86
2023/07/02 11:53:34;;;;;;;3.22;1.90;;;;;;;;;;5005430;28;20081;-87
2023/07/02 11:56:03;;;;;;;3.20;1.80;;;;;;;;;;5023557;28;20053;-86
2023/07/02 11:58:33;;;;;;;3.92;1.98;;;;;;;;;;5010700;28;20148;-86
2023/07/02 12:01:11;;;;;;;2.58;1.77;;;;;;;;;;5001162;28;20140;-87
2023/07/02 12:03:37;;;;;;;3.60;1.90;;;;;;;;;;5040984;28;20041;-86
2023/07/02 12:06:05;;;;;;;3.35;1.77;;;;;;;;;;5039994;28;20042;-85
2023/07/02 12:08:33;;;;;;;5.35;1.92;;;;;;;;;;4990047;28;20104;-85
2023/07/02 12:11:00;;;;;;;2.92;1.73;;;;;;;;;;4998109;28;20038;-83
2023/07/02 12:13:27;;;;;;;5.53;1.88;;;;;;;;;;5020328;28;20080;-85
2023/07/02 12:15:55;;;;;;;2.28;1.73;;;;;;;;;;5008598;28;20509;-88
2023/07/02 12:18:22;;;;;;;7.50;1.90;;;;;;;;;;4985550;28;20131;-83
2023/07/02 12:20:49;;;;;;;4.78;1.60;;;;;;;;;;5003982;28;20073;-84
2023/07/02 12:23:15;;;;;;;5.13;1.63;;;;;;;;;;5016088;28;20486;-82
2023/07/02 12:25:42;;;;;;;4.80;2.20;;;;;;;;;;5015012;28;20454;-85
2023/07/02 12:28:10;;;;;;;2.40;1.40;;;;;;;;;;4995998;28;20046;-85
2023/07/02 12:30:39;;;;;;;3.75;1.77;;;;;;;;;;5004073;28;20045;-86
2023/07/02 12:33:05;;;;;;;6.05;1.70;;;;;;;;;;5019318;28;20136;-86
2023/07/02 12:35:32;;;;;;;2.28;1.50;;;;;;;;;;5020787;28;20061;-86
2023/07/02 12:37:59;;;;;;;6.28;2.20;;;;;;;;;;4986570;28;20310;-85
2023/07/02 12:40:26;;;;;;;4.68;1.65;;;;;;;;;;5004638;28;20060;-86
2023/07/02 12:42:53;;;;;;;6.40;2.13;;;;;;;;;;5028908;28;20458;-86
2023/07/02 12:45:20;;;;;;;5.20;1.95;;;;;;;;;;5000828;28;20046;-84
2023/07/02 12:47:48;;;;;;;2.85;1.65;;;;;;;;;;5013449;28;20069;-82
2023/07/02 12:50:15;;;;;;;4.18;2.20;;;;;;;;;;5017645;28;20038;-82
2023/07/02 12:52:41;;;;;;;5.70;2.22;;;;;;;;;;5014839;28;20517;-81
2023/07/02 12:55:08;;;;;;;3.60;2.20;;;;;;;;;;5019676;28;20113;-82
2023/07/02 12:57:35;;;;;;;4.72;1.92;;;;;;;;;;5021043;28;20093;-85
2023/07/02 13:00:05;;;;;;;3.20;2.00;;;;;;;;;;5020547;28;20065;-84
2023/07/02 13:02:31;;;;;;;3.60;2.10;;;;;;;;;;5012771;28;20061;-83
2023/07/02 13:04:58;;;;;;;4.95;2.00;;;;;;;;;;5004708;28;20085;-83
2023/07/02 13:07:25;;;;;;;7.53;2.40;;;;;;;;;;5017044;28;20049;-84
2023/07/02 13:09:52;;;;;;;4.25;2.30;;;;;;;;;;5046794;28;20057;-83
2023/07/02 13:12:19;;;;;;;5.82;2.35;;;;;;;;;;5018534;28;20109;-87
2023/07/02 13:14:46;;;;;;;4.43;2.40;;;;;;;;;;5014458;28;20112;-86
2023/07/02 13:17:13;;;;;;;8.40;2.63;;;;;;;;;;5027738;28;20080;-85
2023/07/02 13:19:39;;;;;;;5.25;2.42;;;;;;;;;;4998820;28;20046;-87
2023/07/02 13:22:06;;;;;;;5.60;2.63;;;;;;;;;;5012474;28;20046;-86
2023/07/02 13:24:36;;;;;;;5.57;2.55;;;;;;;;;;4997134;28;20050;-83
2023/07/02 13:27:04;;;;;;;6.18;2.45;;;;;;;;;;4998701;28;20046;-84
2023/07/02 13:29:31;;;;;;;3.95;2.42;;;;;;;;;;5013460;28;20044;-83
2023/07/02 13:31:58;;;;;;;6.97;2.40;;;;;;;;;;5018069;28;20073;-84
2023/07/02 13:34:25;;;;;;;7.30;2.67;;;;;;;;;;5018707;28;20478;-84
2023/07/02 13:36:51;;;;;;;5.55;2.70;;;;;;;;;;5024424;28;20041;-83
2023/07/02 13:39:18;;;;;;;5.13;2.45;;;;;;;;;;5040280;28;20053;-84
2023/07/02 13:41:45;;;;;;;8.00;3.22;;;;;;;;;;5037886;28;20104;-80
2023/07/02 13:44:11;;;;;;;6.88;2.58;;;;;;;;;;5010190;28;20884;-77
2023/07/02 13:46:38;;;;;;;5.10;2.70;;;;;;;;;;4992077;28;20046;-80
2023/07/02 13:49:05;;;;;;;5.53;3.00;;;;;;;;;;5006259;28;20049;-78
2023/07/02 13:51:31;;;;;;;5.85;2.75;;;;;;;;;;5024363;28;20048;-84
2023/07/02 13:53:58;;;;;;;5.80;3.00;;;;;;;;;;5027637;28;20096;-78
2023/07/02 13:56:24;;;;;;;5.18;3.17;;;;;;;;;;5023330;28;20050;-76
2023/07/02 13:58:57;;;;;;;7.00;3.22;;;;;;;;;;4998815;28;20057;-76
2023/07/02 14:01:24;;;;;;;5.95;3.15;;;;;;;;;;4983747;28;20061;-82
2023/07/02 14:03:51;;;;;;;7.07;2.78;;;;;;;;;;5008808;28;20133;-82
2023/07/02 14:06:18;;;;;;;4.97;3.00;;;;;;;;;;4997449;28;20049;-84
2023/07/02 14:08:45;;;;;;;8.75;3.00;;;;;;;;;;4996680;28;20042;-84
2023/07/02 14:11:15;;;;;;;5.40;2.90;;;;;;;;;;5009364;28;20049;-82
2023/07/02 14:13:41;;;;;;;9.40;3.97;;;;;;;;;;5029581;28;20417;-81
2023/07/02 14:16:08;;;;;;;8.68;3.08;;;;;;;;;;4994492;28;20423;-80
2023/07/02 14:18:35;;;;;;;6.05;3.65;;;;;;;;;;5027411;28;20042;-84
2023/07/02 14:21:03;;;;;;;6.85;4.30;;;;;;;;;;5017832;28;20053;-83
2023/07/02 14:23:32;;;;;;;6.78;3.47;;;;;;;;;;4999797;28;20071;-81
2023/07/02 14:25:59;;;;;;;8.65;3.63;;;;;;;;;;5034135;28;20052;-82
2023/07/02 14:28:29;;;;;;;5.53;3.58;;;;;;;;;;5015234;28;20057;-82
2023/07/02 14:30:56;;;;;;;7.63;3.78;;;;;;;;;;5011511;28;20041;-83
2023/07/02 14:33:24;;;;;;;7.43;3.75;;;;;;;;;;5022359;28;20056;-82
2023/07/02 14:35:50;;;;;;;7.85;3.40;;;;;;;;;;5010703;28;20049;-82
2023/07/02 14:38:17;;;;;;;8.43;3.60;;;;;;;;;;5014687;28;20071;-84
2023/07/02 14:40:44;;;;;;;5.57;3.60;;;;;;;;;;5012555;28;20045;-77
2023/07/02 14:43:10;;;;;;;6.82;3.47;;;;;;;;;;5007946;28;20050;-85
2023/07/02 14:45:44;;;;;;;7.47;3.90;;;;;;;;;;5008113;28;20054;-85